Archival Weather

Chicago O'Hare International

Chicago, Illinois (KORD)

Report from: Wednesday, August 23, 2023 2:51 AM CDT
Current time: Wednesday, April 24, 2024 2:19 PM CDT

Current weather – Weather history – Daily summaries
Weather forecast

Temperature26.1°C (79.0°F)
Dew point23.9°C (75.0°F)
Winds 7 kts (3.6 m/s, 8.1 mph) Southwest (220°)
Visibility7 mi. (11.3 km)
Clouds Sky clear
Altimeter30.03 in.Hg (1017 mB)
Relative humidity88 %
Density altitude1,580 ft. (482 m)
Sea-level pressure101.6 kPa (1016 mB, 30.01 in.Hg)
Remarks Automated weather observing station with precipitation discriminator
Flight conditions Visual Meteorological Conditions
Raw dataKORD 230751Z 22007KT 7SM CLR 26/24 A3003 RMK AO2 SLP162 T02610239
An error has occurred. This application may no longer respond until reloaded. Reload 🗙